createdAt,value
2019-01-21T00:00:57.224Z,98215.00
2019-01-21T00:05:11.909Z,98216.00
2019-01-21T00:09:26.239Z,98218.00
2019-01-21T00:13:41.001Z,98220.00
2019-01-21T00:17:55.355Z,98222.00
2019-01-21T00:22:09.834Z,98229.00
2019-01-21T00:26:24.440Z,98217.00
2019-01-21T00:30:38.842Z,98230.00
2019-01-21T00:34:53.532Z,98214.00
2019-01-21T00:38:54.420Z,98221.00
2019-01-21T00:43:15.130Z,98217.00
2019-01-21T00:47:36.001Z,98218.00
2019-01-21T00:51:56.768Z,98224.00
2019-01-21T00:56:10.639Z,98220.00
2019-01-21T01:00:25.257Z,98232.00
2019-01-21T01:04:39.768Z,98242.00
2019-01-21T01:08:40.939Z,98241.00
2019-01-21T01:13:01.704Z,98233.00
2019-01-21T01:17:22.449Z,98239.00
2019-01-21T01:21:43.195Z,98241.00
2019-01-21T01:26:04.047Z,98233.00
2019-01-21T01:30:24.993Z,98240.00
2019-01-21T01:34:25.850Z,98240.00
2019-01-21T01:38:26.714Z,98252.00
2019-01-21T01:42:47.555Z,98239.00
2019-01-21T01:47:08.398Z,98238.00
2019-01-21T01:51:29.235Z,98250.00
2019-01-21T01:55:50.076Z,98249.00
2019-01-21T01:59:50.964Z,98251.00
2019-01-21T02:04:05.048Z,98248.00
2019-01-21T02:08:19.659Z,98248.00
2019-01-21T02:12:34.058Z,98244.00
2019-01-21T02:16:35.257Z,98247.00
2019-01-21T02:21:17.751Z,98259.00
2019-01-21T02:25:58.393Z,98245.00
2019-01-21T02:30:39.109Z,98239.00
2019-01-21T02:35:19.927Z,98248.00
2019-01-21T02:40:00.536Z,98239.00
2019-01-21T02:44:43.073Z,98244.00
2019-01-21T02:49:23.707Z,98244.00
2019-01-21T02:54:04.315Z,98233.00
2019-01-21T02:58:46.819Z,98222.00
2019-01-21T03:03:00.753Z,98231.00
2019-01-21T03:07:15.477Z,98229.00
2019-01-21T03:11:29.223Z,98225.00
2019-01-21T03:15:44.188Z,98233.00
2019-01-21T03:20:24.788Z,98226.00
2019-01-21T03:25:05.396Z,98224.00
2019-01-21T03:29:48.248Z,98230.00
2019-01-21T03:34:28.959Z,98225.00
2019-01-21T03:39:09.670Z,98221.00
2019-01-21T03:43:50.263Z,98236.00
2019-01-21T03:48:32.804Z,98236.00
2019-01-21T03:53:13.433Z,98235.00
2019-01-21T03:57:55.978Z,98243.00
2019-01-21T04:02:10.516Z,98244.00
2019-01-21T04:06:53.027Z,98252.00
2019-01-21T04:11:33.713Z,98163.00
2019-01-21T04:16:16.517Z,98247.00
2019-01-21T04:20:57.148Z,98244.00
2019-01-21T04:25:37.848Z,98252.00
2019-01-21T04:30:18.491Z,98253.00
2019-01-21T04:34:59.182Z,98256.00
2019-01-21T04:39:39.801Z,98255.00
2019-01-21T04:44:20.456Z,98258.00
2019-01-21T04:49:03.066Z,98262.00
2019-01-21T04:53:45.583Z,98261.00
2019-01-21T04:58:26.214Z,98257.00
2019-01-21T05:02:41.004Z,98260.00
2019-01-21T05:06:55.512Z,98262.00
2019-01-21T05:11:36.132Z,98258.00
2019-01-21T05:16:19.043Z,98266.00
2019-01-21T05:20:59.667Z,98264.00
2019-01-21T05:25:40.256Z,98271.00
2019-01-21T05:30:21.201Z,98264.00
2019-01-21T05:35:02.056Z,98275.00
2019-01-21T05:39:17.090Z,98265.00
2019-01-21T05:43:31.736Z,98273.00
2019-01-21T05:47:46.321Z,98270.00
2019-01-21T05:52:00.832Z,98265.00
2019-01-21T05:56:15.170Z,98272.00
2019-01-21T06:00:28.953Z,98267.00
2019-01-21T06:04:43.683Z,98263.00
2019-01-21T06:08:57.510Z,98271.00
2019-01-21T06:13:12.101Z,98259.00
2019-01-21T06:17:26.600Z,98274.00
2019-01-21T06:21:41.204Z,98270.00
2019-01-21T06:25:55.911Z,98278.00
2019-01-21T06:30:10.277Z,98271.00
2019-01-21T06:34:24.803Z,98273.00
2019-01-21T06:38:39.366Z,98268.00
2019-01-21T06:42:53.645Z,98275.00
2019-01-21T06:47:08.111Z,98274.00
2019-01-21T06:51:22.432Z,98273.00
2019-01-21T06:55:36.811Z,98285.00
2019-01-21T06:59:51.225Z,98290.00
2019-01-21T07:04:05.076Z,98290.00
2019-01-21T07:08:19.659Z,98292.00
2019-01-21T07:12:34.080Z,98303.00
2019-01-21T07:16:48.931Z,98305.00
2019-01-21T07:21:02.952Z,98311.00
2019-01-21T07:25:17.261Z,98301.00
2019-01-21T07:29:31.945Z,98313.00
2019-01-21T07:33:46.377Z,98315.00
2019-01-21T07:38:01.151Z,98317.00
2019-01-21T07:42:15.919Z,98322.00
2019-01-21T07:46:30.167Z,98321.00
2019-01-21T07:51:12.825Z,98320.00
2019-01-21T07:55:53.432Z,98324.00
2019-01-21T08:00:34.059Z,98320.00
2019-01-21T08:04:48.669Z,98321.00
2019-01-21T08:09:03.579Z,98294.00
2019-01-21T08:13:17.607Z,98329.00
2019-01-21T08:17:32.207Z,98338.00
2019-01-21T08:21:46.728Z,98332.00
2019-01-21T08:26:01.389Z,98333.00
2019-01-21T08:30:15.849Z,98333.00
2019-01-21T08:34:30.195Z,98343.00
2019-01-21T08:38:44.751Z,98350.00
2019-01-21T08:42:59.374Z,98353.00
2019-01-21T08:47:14.067Z,98352.00
2019-01-21T08:51:28.386Z,98358.00
2019-01-21T08:55:43.010Z,98361.00
2019-01-21T08:59:57.674Z,98358.00
2019-01-21T09:04:12.154Z,98346.00
2019-01-21T09:08:26.554Z,98363.00
2019-01-21T09:12:41.185Z,98379.00
2019-01-21T09:16:55.826Z,98373.00
2019-01-21T09:21:10.355Z,98368.00
2019-01-21T09:25:24.244Z,98376.00
2019-01-21T09:29:38.730Z,98378.00
2019-01-21T09:33:53.120Z,98376.00
2019-01-21T09:38:07.778Z,98373.00
2019-01-21T09:42:21.984Z,98376.00
2019-01-21T09:46:36.395Z,98374.00
2019-01-21T09:50:59.080Z,98368.00
2019-01-21T09:55:41.603Z,98374.00
2019-01-21T10:00:24.129Z,98365.00
2019-01-21T10:04:38.423Z,98364.00
2019-01-21T10:08:52.835Z,98371.00
2019-01-21T10:13:07.290Z,98365.00
2019-01-21T10:17:21.892Z,98364.00
2019-01-21T10:21:36.448Z,98365.00
2019-01-21T10:25:50.727Z,98362.00
2019-01-21T10:30:31.380Z,98346.00
2019-01-21T10:35:12.058Z,98342.00
2019-01-21T10:39:26.294Z,98324.00
2019-01-21T10:43:40.776Z,98330.00
2019-01-21T10:47:55.218Z,98321.00
2019-01-21T10:52:09.873Z,98324.00
2019-01-21T10:56:52.428Z,98328.00
2019-01-21T11:01:33.053Z,98327.00
2019-01-21T11:06:15.572Z,98317.00
2019-01-21T11:10:56.184Z,98318.00
2019-01-21T11:15:36.802Z,98323.00
2019-01-21T11:20:17.413Z,98312.00
2019-01-21T11:24:58.115Z,98312.00
2019-01-21T11:29:40.652Z,98315.00
2019-01-21T11:34:23.152Z,98310.00
2019-01-21T11:39:05.698Z,98301.00
2019-01-21T11:43:48.400Z,98302.00
2019-01-21T11:48:30.958Z,98282.00
2019-01-21T11:53:13.478Z,98290.00
2019-01-21T12:02:03.709Z,98280.00
2019-01-21T12:06:18.531Z,98264.00
2019-01-21T12:10:59.268Z,98259.00
2019-01-21T12:15:41.808Z,98256.00
2019-01-21T12:20:24.458Z,98259.00
2019-01-21T12:24:45.515Z,98252.00
2019-01-21T12:29:26.123Z,98261.00
2019-01-21T12:34:08.656Z,98249.00
2019-01-21T12:38:31.343Z,98247.00
2019-01-21T12:43:12.096Z,98241.00
2019-01-21T12:47:52.829Z,98237.00
2019-01-21T12:52:35.377Z,98243.00
2019-01-21T12:57:16.111Z,98234.00
2019-01-21T13:01:57.987Z,98225.00
2019-01-21T13:06:38.694Z,98219.00
2019-01-21T13:11:21.191Z,98208.00
2019-01-21T13:16:01.821Z,98203.00
2019-01-21T13:20:44.382Z,98183.00
2019-01-21T13:25:24.979Z,98169.00
2019-01-21T13:30:07.479Z,98171.00
2019-01-21T13:34:50.023Z,98176.00
2019-01-21T13:39:32.644Z,98190.00
2019-01-21T13:44:14.073Z,98175.00
2019-01-21T13:48:54.709Z,98168.00
2019-01-21T13:53:35.373Z,98176.00
2019-01-21T13:58:16.083Z,98170.00
2019-01-21T14:02:30.647Z,98166.00
2019-01-21T14:06:44.375Z,98166.00
2019-01-21T14:10:58.815Z,98149.00
2019-01-21T14:15:13.247Z,98159.00
2019-01-21T14:19:27.730Z,98154.00
2019-01-21T14:23:41.595Z,98139.00
2019-01-21T14:27:56.232Z,98139.00
2019-01-21T14:32:10.978Z,98135.00
2019-01-21T14:36:25.611Z,98142.00
2019-01-21T14:41:10.976Z,98147.00
2019-01-21T14:45:53.642Z,98138.00
2019-01-21T14:50:16.334Z,98129.00
2019-01-21T14:54:57.165Z,98128.00
2019-01-21T14:59:38.837Z,98143.00
2019-01-21T15:04:21.840Z,98136.00
2019-01-21T15:09:04.544Z,98134.00
2019-01-21T15:13:45.336Z,98132.00
2019-01-21T15:18:26.081Z,98128.00
2019-01-21T15:23:07.219Z,98127.00
2019-01-21T15:27:49.808Z,98135.00
2019-01-21T15:32:30.484Z,98128.00
2019-01-21T15:37:13.173Z,98113.00
2019-01-21T15:41:55.817Z,98112.00
2019-01-21T15:46:36.470Z,98110.00
2019-01-21T15:51:17.206Z,98128.00
2019-01-21T15:55:57.901Z,98127.00
2019-01-21T16:00:12.463Z,98126.00
2019-01-21T16:04:26.842Z,98129.00
2019-01-21T16:08:40.771Z,98123.00
2019-01-21T16:12:55.222Z,98131.00
2019-01-21T16:17:09.903Z,98130.00
2019-01-21T16:21:23.965Z,98129.00
2019-01-21T16:25:37.982Z,98124.00
2019-01-21T16:29:52.638Z,98123.00
2019-01-21T16:34:07.235Z,98124.00
2019-01-21T16:38:21.879Z,98132.00
2019-01-21T16:42:36.176Z,98138.00
2019-01-21T16:46:50.794Z,98132.00
2019-01-21T16:51:05.335Z,98140.00
2019-01-21T16:55:19.847Z,98138.00
2019-01-21T16:59:34.249Z,98144.00
2019-01-21T17:03:49.179Z,98130.00
2019-01-21T17:08:03.873Z,98130.00
2019-01-21T17:12:18.355Z,98129.00
2019-01-21T17:16:32.677Z,98120.00
2019-01-21T17:20:47.388Z,98113.00
2019-01-21T17:25:01.280Z,98116.00
2019-01-21T17:29:16.057Z,98107.00
2019-01-21T17:33:30.427Z,98099.00
2019-01-21T17:37:45.042Z,98095.00
2019-01-21T17:41:59.478Z,98082.00
2019-01-21T17:46:14.140Z,98079.00
2019-01-21T17:50:28.453Z,98065.00
2019-01-21T17:54:34.788Z,98082.00
2019-01-21T17:58:52.040Z,98074.00
2019-01-21T18:03:05.958Z,98073.00
2019-01-21T18:07:20.890Z,98067.00
2019-01-21T18:11:41.020Z,98061.00
2019-01-21T18:15:51.352Z,98069.00
2019-01-21T18:19:52.271Z,98064.00
2019-01-21T18:24:13.020Z,98075.00
2019-01-21T18:28:33.905Z,98081.00
2019-01-21T18:32:54.802Z,98073.00
2019-01-21T18:37:15.580Z,98077.00
2019-01-21T18:41:29.557Z,98083.00
2019-01-21T18:45:30.494Z,98082.00
2019-01-21T18:49:51.458Z,98081.00
2019-01-21T18:54:12.200Z,98080.00
2019-01-21T18:58:32.958Z,98083.00
2019-01-21T19:02:47.766Z,98075.00
2019-01-21T19:07:02.279Z,98084.00
2019-01-21T19:11:03.294Z,98074.00
2019-01-21T19:20:24.878Z,98069.00
2019-01-21T19:24:45.771Z,98072.00
2019-01-21T19:28:46.749Z,98075.00
2019-01-21T19:37:36.655Z,98067.00
2019-01-21T19:41:37.621Z,98056.00
2019-01-21T19:45:38.525Z,98057.00
2019-01-21T19:49:59.280Z,98055.00
2019-01-21T19:54:20.255Z,98062.00
2019-01-21T19:58:41.206Z,98045.00
2019-01-21T20:02:55.841Z,98045.00
2019-01-21T20:06:56.857Z,98053.00
2019-01-21T20:11:17.931Z,98039.00
2019-01-21T20:15:38.863Z,98029.00
2019-01-21T20:20:00.462Z,98025.00
2019-01-21T20:24:21.312Z,98022.00
2019-01-21T20:28:42.066Z,98013.00
2019-01-21T20:33:03.045Z,98010.00
2019-01-21T20:37:23.826Z,98005.00
2019-01-21T20:41:24.842Z,98002.00
2019-01-21T20:45:45.778Z,98002.00
2019-01-21T20:49:46.680Z,97994.00
2019-01-21T20:54:07.563Z,97999.00
2019-01-21T20:58:28.494Z,97994.00
2019-01-21T21:02:29.490Z,97994.00
2019-01-21T21:06:50.355Z,97995.00
2019-01-21T21:11:11.169Z,98000.00
2019-01-21T21:15:31.944Z,97999.00
2019-01-21T21:19:32.894Z,97992.00
2019-01-21T21:23:33.839Z,97991.00
2019-01-21T21:27:34.977Z,97994.00
2019-01-21T21:31:55.886Z,97980.00
2019-01-21T21:35:56.857Z,97979.00
2019-01-21T21:40:18.494Z,97975.00
2019-01-21T21:44:39.238Z,97968.00
2019-01-21T21:48:59.967Z,97970.00
2019-01-21T21:53:20.779Z,97965.00
2019-01-21T21:57:41.823Z,97960.00
2019-01-21T22:02:02.841Z,97960.00
2019-01-21T22:06:04.046Z,97968.00
2019-01-21T22:10:25.478Z,97961.00
2019-01-21T22:14:26.349Z,97961.00
2019-01-21T22:18:47.170Z,97952.00
2019-01-21T22:23:07.927Z,97953.00
2019-01-21T22:27:28.773Z,97942.00
2019-01-21T22:31:49.504Z,97945.00
2019-01-21T22:36:10.309Z,97938.00
2019-01-21T22:40:31.159Z,97933.00
2019-01-21T22:44:51.977Z,97941.00
2019-01-21T22:49:12.815Z,97937.00
2019-01-21T22:53:33.705Z,97944.00
2019-01-21T22:57:54.644Z,97937.00
2019-01-21T23:02:09.487Z,97936.00
2019-01-21T23:06:23.531Z,97929.00
2019-01-21T23:10:37.460Z,97928.00
2019-01-21T23:14:52.057Z,97931.00
2019-01-21T23:19:05.871Z,97932.00
2019-01-21T23:23:20.734Z,97919.00
2019-01-21T23:27:21.609Z,97930.00
2019-01-21T23:31:42.454Z,97913.00
2019-01-21T23:36:03.411Z,97918.00
2019-01-21T23:40:24.289Z,97905.00
2019-01-21T23:44:38.189Z,97905.00
2019-01-21T23:48:39.157Z,97903.00
2019-01-21T23:52:59.908Z,97889.00
2019-01-21T23:57:20.778Z,97890.00
